createdAt,value
2018-03-27T00:00:16.187Z,951.69
2018-03-27T00:01:16.174Z,951.72
2018-03-27T00:02:16.155Z,951.66
2018-03-27T00:03:16.138Z,951.69
2018-03-27T00:04:16.124Z,951.7
2018-03-27T00:05:16.161Z,951.68
2018-03-27T00:06:16.093Z,951.66
2018-03-27T00:07:16.078Z,951.71
2018-03-27T00:08:16.061Z,951.69
2018-03-27T00:09:16.044Z,951.69
2018-03-27T00:10:16.031Z,951.7
2018-03-27T00:11:16.016Z,951.72
2018-03-27T00:12:16.006Z,951.73
2018-03-27T00:13:15.983Z,951.73
2018-03-27T00:14:15.967Z,951.73
2018-03-27T00:15:15.950Z,951.76
2018-03-27T00:16:15.935Z,951.76
2018-03-27T00:17:15.919Z,951.77
2018-03-27T00:18:15.903Z,951.74
2018-03-27T00:19:15.887Z,951.72
2018-03-27T00:20:15.872Z,951.76
2018-03-27T00:21:15.857Z,951.76
2018-03-27T00:22:15.840Z,951.69
2018-03-27T00:23:15.826Z,951.71
2018-03-27T00:24:15.807Z,951.74
2018-03-27T00:25:15.792Z,951.72
2018-03-27T00:26:15.777Z,951.68
2018-03-27T00:27:15.763Z,951.73
2018-03-27T00:28:15.745Z,951.69
2018-03-27T00:29:15.731Z,951.67
2018-03-27T00:30:15.713Z,951.7
2018-03-27T00:31:15.698Z,951.67
2018-03-27T00:32:15.686Z,951.7
2018-03-27T00:33:15.666Z,951.71
2018-03-27T00:34:15.651Z,951.69
2018-03-27T00:35:15.635Z,951.7
2018-03-27T00:36:15.617Z,951.72
2018-03-27T00:37:15.604Z,951.72
2018-03-27T00:38:15.587Z,951.76
2018-03-27T00:39:15.570Z,951.73
2018-03-27T00:40:15.554Z,951.78
2018-03-27T00:41:15.540Z,951.72
2018-03-27T00:42:15.522Z,951.74
2018-03-27T00:43:15.508Z,951.73
2018-03-27T00:44:15.491Z,951.72
2018-03-27T00:45:15.476Z,951.66
2018-03-27T00:46:15.460Z,951.75
2018-03-27T00:47:15.451Z,951.72
2018-03-27T00:48:15.428Z,951.71
2018-03-27T00:49:15.413Z,951.73
2018-03-27T00:50:15.401Z,951.76
2018-03-27T00:51:15.380Z,951.77
2018-03-27T00:52:15.364Z,951.74
2018-03-27T00:53:15.348Z,951.77
2018-03-27T00:54:15.332Z,951.74
2018-03-27T00:55:15.316Z,951.73
2018-03-27T00:56:15.301Z,951.73
2018-03-27T00:57:15.283Z,951.73
2018-03-27T00:58:15.268Z,951.77
2018-03-27T00:59:15.252Z,951.77
2018-03-27T01:00:15.236Z,951.75
2018-03-27T01:01:15.220Z,951.7
2018-03-27T01:02:15.205Z,951.72
2018-03-27T01:03:15.188Z,951.69
2018-03-27T01:04:15.172Z,951.75
2018-03-27T01:05:15.154Z,951.75
2018-03-27T01:06:15.139Z,951.73
2018-03-27T01:07:15.124Z,951.79
2018-03-27T01:08:15.107Z,951.77
2018-03-27T01:09:15.089Z,951.74
2018-03-27T01:10:15.074Z,951.76
2018-03-27T01:11:15.057Z,951.73
2018-03-27T01:12:15.043Z,951.76
2018-03-27T01:13:15.025Z,951.76
2018-03-27T01:14:15.011Z,951.74
2018-03-27T01:15:14.991Z,951.74
2018-03-27T01:16:14.978Z,951.69
2018-03-27T01:17:14.959Z,951.72
2018-03-27T01:18:14.942Z,951.68
2018-03-27T01:19:14.929Z,951.69
2018-03-27T01:20:14.907Z,951.67
2018-03-27T01:21:14.891Z,951.64
2018-03-27T01:22:14.877Z,951.62
2018-03-27T01:23:14.859Z,951.64
2018-03-27T01:24:14.842Z,951.65
2018-03-27T01:25:14.833Z,951.63
2018-03-27T01:26:14.808Z,951.63
2018-03-27T01:27:14.792Z,951.65
2018-03-27T01:28:14.775Z,951.61
2018-03-27T01:29:14.760Z,951.62
2018-03-27T01:30:14.742Z,951.61
2018-03-27T01:31:14.725Z,951.63
2018-03-27T01:32:14.711Z,951.61
2018-03-27T01:33:14.692Z,951.62
2018-03-27T01:34:14.675Z,951.61
2018-03-27T01:35:14.658Z,951.61
2018-03-27T01:36:14.643Z,951.59
2018-03-27T01:37:14.629Z,951.61
2018-03-27T01:38:14.609Z,951.62
2018-03-27T01:39:14.592Z,951.62
2018-03-27T01:40:14.575Z,951.6
2018-03-27T01:41:14.558Z,951.53
2018-03-27T01:42:14.542Z,951.57
2018-03-27T01:43:14.526Z,951.6
2018-03-27T01:44:14.507Z,951.61
2018-03-27T01:45:14.492Z,951.57
2018-03-27T01:46:14.475Z,951.59
2018-03-27T01:47:14.459Z,951.57
2018-03-27T01:48:14.441Z,951.54
2018-03-27T01:49:14.464Z,951.55
2018-03-27T01:50:14.408Z,951.54
2018-03-27T01:51:14.392Z,951.53
2018-03-27T01:52:14.375Z,951.57
2018-03-27T01:53:14.358Z,951.57
2018-03-27T01:54:14.342Z,951.56
2018-03-27T01:55:14.324Z,951.59
2018-03-27T01:56:14.308Z,951.64
2018-03-27T01:57:14.292Z,951.61
2018-03-27T01:58:14.274Z,951.65
2018-03-27T01:59:14.257Z,951.66
2018-03-27T02:00:14.240Z,951.64
2018-03-27T02:01:14.225Z,951.66
2018-03-27T02:02:14.208Z,951.61
2018-03-27T02:03:14.190Z,951.68
2018-03-27T02:04:14.177Z,951.62
2018-03-27T02:05:14.179Z,951.64
2018-03-27T02:06:14.139Z,951.65
2018-03-27T02:07:14.126Z,951.65
2018-03-27T02:08:14.105Z,951.66
2018-03-27T02:09:14.088Z,951.63
2018-03-27T02:10:14.072Z,951.68
2018-03-27T02:11:14.054Z,951.69
2018-03-27T02:12:14.039Z,951.65
2018-03-27T02:13:14.022Z,951.6
2018-03-27T02:14:14.004Z,951.53
2018-03-27T02:15:13.989Z,951.59
2018-03-27T02:16:13.971Z,951.56
2018-03-27T02:17:13.953Z,951.55
2018-03-27T02:18:13.936Z,951.49
2018-03-27T02:19:13.926Z,951.48
2018-03-27T02:20:13.904Z,951.51
2018-03-27T02:21:13.887Z,951.5
2018-03-27T02:22:13.869Z,951.52
2018-03-27T02:23:13.860Z,951.54
2018-03-27T02:24:13.836Z,951.51
2018-03-27T02:25:13.820Z,951.53
2018-03-27T02:26:13.802Z,951.55
2018-03-27T02:27:13.786Z,951.54
2018-03-27T02:28:13.768Z,951.53
2018-03-27T02:29:13.752Z,951.56
2018-03-27T02:30:13.743Z,951.56
2018-03-27T02:31:13.720Z,951.57
2018-03-27T02:32:13.701Z,951.62
2018-03-27T02:33:13.684Z,951.64
2018-03-27T02:34:13.670Z,951.6
2018-03-27T02:35:13.658Z,951.62
2018-03-27T02:36:13.637Z,951.64
2018-03-27T02:37:13.620Z,951.69
2018-03-27T02:38:13.603Z,951.67
2018-03-27T02:39:13.586Z,951.67
2018-03-27T02:40:13.570Z,951.67
2018-03-27T02:41:13.552Z,951.72
2018-03-27T02:42:13.537Z,951.71
2018-03-27T02:43:13.522Z,951.71
2018-03-27T02:44:13.501Z,951.73
2018-03-27T02:45:13.487Z,951.78
2018-03-27T02:46:13.468Z,951.73
2018-03-27T02:47:13.451Z,951.72
2018-03-27T02:48:13.435Z,951.7
2018-03-27T02:49:13.418Z,951.68
2018-03-27T02:50:13.401Z,951.72
2018-03-27T02:51:13.389Z,951.71
2018-03-27T02:52:13.369Z,951.71
2018-03-27T02:53:13.351Z,951.71
2018-03-27T02:54:13.334Z,951.74
2018-03-27T02:55:13.316Z,951.72
2018-03-27T02:56:13.302Z,951.68
2018-03-27T02:57:13.283Z,951.71
2018-03-27T02:58:13.270Z,951.71
2018-03-27T02:59:13.251Z,951.77
2018-03-27T03:00:13.234Z,951.77
2018-03-27T03:01:13.217Z,951.78
2018-03-27T03:02:13.200Z,951.79
2018-03-27T03:03:13.184Z,951.79
2018-03-27T03:04:13.168Z,951.81
2018-03-27T03:05:13.149Z,951.79
2018-03-27T03:06:13.138Z,951.84
2018-03-27T03:07:13.119Z,951.84
2018-03-27T03:08:13.099Z,951.82
2018-03-27T03:09:13.082Z,951.86
2018-03-27T03:10:13.066Z,951.86
2018-03-27T03:11:13.051Z,951.82
2018-03-27T03:12:13.030Z,951.86
2018-03-27T03:13:13.016Z,951.82
2018-03-27T03:14:12.999Z,951.8
2018-03-27T03:15:12.981Z,951.82
2018-03-27T03:16:12.963Z,951.81
2018-03-27T03:17:12.947Z,951.83
2018-03-27T03:18:12.930Z,951.8
2018-03-27T03:19:12.914Z,951.84
2018-03-27T03:20:12.896Z,951.82
2018-03-27T03:21:12.879Z,951.8
2018-03-27T03:22:12.863Z,951.79
2018-03-27T03:23:12.845Z,951.79
2018-03-27T03:24:12.827Z,951.76
2018-03-27T03:25:12.811Z,951.79
2018-03-27T03:26:12.795Z,951.8
2018-03-27T03:27:12.780Z,951.78
2018-03-27T03:28:12.762Z,951.78
2018-03-27T03:29:12.745Z,951.78
2018-03-27T03:30:12.728Z,951.78
2018-03-27T03:31:12.710Z,951.77
2018-03-27T03:32:12.693Z,951.83
2018-03-27T03:33:12.676Z,951.75
2018-03-27T03:34:12.658Z,951.79
2018-03-27T03:35:12.641Z,951.78
2018-03-27T03:36:12.625Z,951.77
2018-03-27T03:37:12.607Z,951.81
2018-03-27T03:38:12.590Z,951.8
2018-03-27T03:39:12.571Z,951.81
2018-03-27T03:40:12.556Z,951.79
2018-03-27T03:41:12.539Z,951.78
2018-03-27T03:42:12.521Z,951.79
2018-03-27T03:43:12.509Z,951.77
2018-03-27T03:44:12.487Z,951.85
2018-03-27T03:45:12.475Z,951.8
2018-03-27T03:46:12.453Z,951.78
2018-03-27T03:47:12.435Z,951.85
2018-03-27T03:48:12.419Z,951.8
2018-03-27T03:49:12.400Z,951.81
2018-03-27T03:50:12.383Z,951.83
2018-03-27T03:51:12.366Z,951.8
2018-03-27T03:52:12.348Z,951.8
2018-03-27T03:53:12.336Z,951.79
2018-03-27T03:54:12.313Z,951.82
2018-03-27T03:55:12.302Z,951.79
2018-03-27T03:56:12.281Z,951.77
2018-03-27T03:57:12.262Z,951.8
2018-03-27T03:58:12.246Z,951.77
2018-03-27T03:59:12.235Z,951.78
2018-03-27T04:00:12.210Z,951.8
2018-03-27T04:01:12.194Z,951.81
2018-03-27T04:02:12.175Z,951.74
2018-03-27T04:03:12.158Z,951.73
2018-03-27T04:04:12.140Z,951.74
2018-03-27T04:05:12.124Z,951.71
2018-03-27T04:06:12.107Z,951.73
2018-03-27T04:07:12.088Z,951.73
2018-03-27T04:08:12.071Z,951.69
2018-03-27T04:09:12.055Z,951.73
2018-03-27T04:10:12.038Z,951.71
2018-03-27T04:11:12.022Z,951.67
2018-03-27T04:12:12.003Z,951.67
2018-03-27T04:13:11.986Z,951.7
2018-03-27T04:14:11.968Z,951.63
2018-03-27T04:15:11.951Z,951.66
2018-03-27T04:16:11.935Z,951.68
2018-03-27T04:17:11.917Z,951.7
2018-03-27T04:18:11.900Z,951.68
2018-03-27T04:19:11.883Z,951.69
2018-03-27T04:20:11.867Z,951.69
2018-03-27T04:21:11.853Z,951.71
2018-03-27T04:22:11.832Z,951.73
2018-03-27T04:23:11.815Z,951.75
2018-03-27T04:24:11.798Z,951.75
2018-03-27T04:25:11.782Z,951.73
2018-03-27T04:26:11.786Z,951.75
2018-03-27T04:27:11.747Z,951.72
2018-03-27T04:28:11.729Z,951.74
2018-03-27T04:29:11.720Z,951.72
2018-03-27T04:30:11.694Z,951.7
2018-03-27T04:31:11.680Z,951.73
2018-03-27T04:32:11.662Z,951.68
2018-03-27T04:33:11.643Z,951.72
2018-03-27T04:34:11.627Z,951.69
2018-03-27T04:35:11.613Z,951.76
2018-03-27T04:36:11.590Z,951.7
2018-03-27T04:37:11.575Z,951.76
2018-03-27T04:38:11.557Z,951.77
2018-03-27T04:39:11.541Z,951.77
2018-03-27T04:40:11.523Z,951.75
2018-03-27T04:41:11.507Z,951.7
2018-03-27T04:42:11.491Z,951.71
2018-03-27T04:43:11.472Z,951.71
2018-03-27T04:44:11.456Z,951.69
2018-03-27T04:45:11.439Z,951.72
2018-03-27T04:46:11.423Z,951.67
2018-03-27T04:47:11.404Z,951.66
2018-03-27T04:48:11.387Z,951.7
2018-03-27T04:49:11.370Z,951.67
2018-03-27T04:50:11.354Z,951.7
2018-03-27T04:51:11.335Z,951.7
2018-03-27T04:52:11.319Z,951.69
2018-03-27T04:53:11.301Z,951.7
2018-03-27T04:54:11.288Z,951.7
2018-03-27T04:55:11.267Z,951.71
2018-03-27T04:56:11.249Z,951.7
2018-03-27T04:57:11.233Z,951.7
2018-03-27T04:58:11.216Z,951.72
2018-03-27T04:59:11.198Z,951.72
2018-03-27T05:00:11.181Z,951.75
2018-03-27T05:01:11.166Z,951.76
2018-03-27T05:02:11.147Z,951.77
2018-03-27T05:03:11.130Z,951.73
2018-03-27T05:04:11.113Z,951.72
2018-03-27T05:05:11.095Z,951.74
2018-03-27T05:06:11.080Z,951.77
2018-03-27T05:07:11.061Z,951.77
2018-03-27T05:08:11.045Z,951.8
2018-03-27T05:09:11.031Z,951.78
2018-03-27T05:10:11.010Z,951.79
2018-03-27T05:11:10.992Z,951.83
2018-03-27T05:12:10.977Z,951.81
2018-03-27T05:13:10.958Z,951.8
2018-03-27T05:14:10.941Z,951.75
2018-03-27T05:15:10.923Z,951.84
2018-03-27T05:16:10.910Z,951.76
2018-03-27T05:17:10.890Z,951.78
2018-03-27T05:18:10.873Z,951.79
2018-03-27T05:19:10.860Z,951.79
2018-03-27T05:20:10.851Z,951.82
2018-03-27T05:21:10.872Z,951.79
2018-03-27T05:22:10.803Z,951.83
2018-03-27T05:23:10.785Z,951.81
2018-03-27T05:24:10.768Z,951.78
2018-03-27T05:25:10.760Z,951.79
2018-03-27T05:26:10.735Z,951.8
2018-03-27T05:27:10.718Z,951.76
2018-03-27T05:28:10.702Z,951.82
2018-03-27T05:29:10.688Z,951.76
2018-03-27T05:30:10.665Z,951.77
2018-03-27T05:31:10.649Z,951.77
2018-03-27T05:32:10.632Z,951.77
2018-03-27T05:33:10.615Z,951.7
2018-03-27T05:34:10.598Z,951.74
2018-03-27T05:35:10.580Z,951.69
2018-03-27T05:36:10.564Z,951.69
2018-03-27T05:37:10.547Z,951.71
2018-03-27T05:38:10.529Z,951.71
2018-03-27T05:39:10.513Z,951.68
2018-03-27T05:40:10.497Z,951.7
2018-03-27T05:41:10.478Z,951.63
2018-03-27T05:42:10.461Z,951.66
2018-03-27T05:43:10.444Z,951.64
2018-03-27T05:44:10.427Z,951.71
2018-03-27T05:45:10.411Z,951.69
2018-03-27T05:46:10.398Z,951.71
2018-03-27T05:47:10.377Z,951.71
2018-03-27T05:48:10.363Z,951.72
2018-03-27T05:49:10.343Z,951.79
2018-03-27T05:50:10.326Z,951.73
2018-03-27T05:51:10.333Z,951.75
2018-03-27T05:52:10.295Z,951.71
2018-03-27T05:53:10.276Z,951.72
2018-03-27T05:54:10.259Z,951.66
2018-03-27T05:55:10.243Z,951.68
2018-03-27T05:56:10.225Z,951.71
2018-03-27T05:57:10.207Z,951.71
2018-03-27T05:58:10.192Z,951.7
2018-03-27T05:59:10.176Z,951.66
2018-03-27T06:00:10.162Z,951.71
2018-03-27T06:01:10.140Z,951.7
2018-03-27T06:02:10.131Z,951.73
2018-03-27T06:03:10.112Z,951.72
2018-03-27T06:04:10.091Z,951.74
2018-03-27T06:05:10.081Z,951.72
2018-03-27T06:06:10.062Z,951.72
2018-03-27T06:07:10.040Z,951.72
2018-03-27T06:08:10.025Z,951.77
2018-03-27T06:09:10.008Z,951.74
2018-03-27T06:10:09.991Z,951.72
2018-03-27T06:11:09.990Z,951.72
2018-03-27T06:12:09.957Z,951.74
2018-03-27T06:13:09.942Z,951.78
2018-03-27T06:14:09.926Z,951.77
2018-03-27T06:15:09.910Z,951.8
2018-03-27T06:16:09.890Z,951.81
2018-03-27T06:17:09.875Z,951.79
2018-03-27T06:18:09.857Z,951.8
2018-03-27T06:19:09.841Z,951.81
2018-03-27T06:20:09.824Z,951.82
2018-03-27T06:21:09.808Z,951.81
2018-03-27T06:22:09.791Z,951.82
2018-03-27T06:23:09.775Z,951.8
2018-03-27T06:24:09.764Z,951.85
2018-03-27T06:25:09.743Z,951.85
2018-03-27T06:26:09.726Z,951.87
2018-03-27T06:27:09.709Z,951.87
2018-03-27T06:28:09.695Z,951.93
2018-03-27T06:29:09.677Z,951.94
2018-03-27T06:30:09.663Z,951.98
2018-03-27T06:31:09.645Z,951.97
2018-03-27T06:32:09.631Z,951.97
2018-03-27T06:33:09.614Z,952.04
2018-03-27T06:34:09.597Z,952.05
2018-03-27T06:35:09.582Z,952.09
2018-03-27T06:36:09.563Z,952.11
2018-03-27T06:37:09.547Z,952.1
2018-03-27T06:38:09.531Z,952.12
2018-03-27T06:39:09.516Z,952.12
2018-03-27T06:40:09.514Z,952.13
2018-03-27T06:41:09.493Z,952.16
2018-03-27T06:42:09.629Z,952.17
2018-03-27T06:43:09.452Z,952.19
2018-03-27T06:44:09.434Z,952.21
2018-03-27T06:45:09.419Z,952.19
2018-03-27T06:46:09.402Z,952.17
2018-03-27T06:47:09.386Z,952.17
2018-03-27T06:48:09.369Z,952.21
2018-03-27T06:49:09.353Z,952.17
2018-03-27T06:50:09.337Z,952.19
2018-03-27T06:51:09.319Z,952.12
2018-03-27T06:52:09.304Z,952.14
2018-03-27T06:53:09.289Z,952.18
2018-03-27T06:54:09.272Z,952.18
2018-03-27T06:55:09.256Z,952.22
2018-03-27T06:56:09.241Z,952.24
2018-03-27T06:57:09.224Z,952.22
2018-03-27T06:58:09.211Z,952.23
2018-03-27T06:59:09.240Z,952.21
2018-03-27T07:00:09.181Z,952.22
2018-03-27T07:01:09.158Z,952.21
2018-03-27T07:02:09.148Z,952.2
2018-03-27T07:03:09.127Z,952.16
2018-03-27T07:04:09.112Z,952.18
2018-03-27T07:05:09.120Z,952.17
2018-03-27T07:06:09.110Z,952.14
2018-03-27T07:07:09.086Z,952.15
2018-03-27T07:08:09.047Z,952.16
2018-03-27T07:09:09.037Z,952.15
2018-03-27T07:10:09.014Z,952.17
2018-03-27T07:11:09.016Z,952.17
2018-03-27T07:12:09.020Z,952.17
2018-03-27T07:13:09.008Z,952.21
2018-03-27T07:14:08.951Z,952.16
2018-03-27T07:15:08.946Z,952.1
2018-03-27T07:16:08.934Z,952.12
2018-03-27T07:17:08.908Z,952.14
2018-03-27T07:18:08.910Z,952.09
2018-03-27T07:19:08.871Z,952.07
2018-03-27T07:20:08.857Z,952.12
2018-03-27T07:21:08.840Z,952.13
2018-03-27T07:22:08.825Z,952.08
2018-03-27T07:23:08.808Z,952.08
2018-03-27T07:24:08.794Z,952.1
2018-03-27T07:25:08.782Z,952.16
2018-03-27T07:26:08.765Z,952.13
2018-03-27T07:27:08.749Z,952.12
2018-03-27T07:28:08.730Z,952.16
2018-03-27T07:29:08.715Z,952.17
2018-03-27T07:30:08.700Z,952.18
2018-03-27T07:31:08.683Z,952.17
2018-03-27T07:32:08.668Z,952.12
2018-03-27T07:33:08.657Z,952.12
2018-03-27T07:34:08.644Z,952.12
2018-03-27T07:35:08.620Z,952.1
2018-03-27T07:36:08.607Z,952.14
2018-03-27T07:37:08.590Z,952.17
2018-03-27T07:38:08.577Z,952.19
2018-03-27T07:39:08.559Z,952.22
2018-03-27T07:40:08.546Z,952.22
2018-03-27T07:41:08.530Z,952.21
2018-03-27T07:42:08.515Z,952.18
2018-03-27T07:43:08.502Z,952.17
2018-03-27T07:44:08.486Z,952.18
2018-03-27T07:45:08.470Z,952.2
2018-03-27T07:46:08.453Z,952.17
2018-03-27T07:47:08.438Z,952.15
2018-03-27T07:48:08.424Z,952.15
2018-03-27T07:49:08.408Z,952.18
2018-03-27T07:50:08.393Z,952.14
2018-03-27T07:51:08.379Z,952.16
2018-03-27T07:52:08.365Z,952.14
2018-03-27T07:53:08.349Z,952.13
2018-03-27T07:54:08.336Z,952.18
2018-03-27T07:55:08.353Z,952.16
2018-03-27T07:56:08.306Z,952.18
2018-03-27T07:57:08.289Z,952.17
2018-03-27T07:58:08.275Z,952.21
2018-03-27T07:59:08.260Z,952.2
2018-03-27T08:00:08.247Z,952.15
2018-03-27T08:01:08.230Z,952.16
2018-03-27T08:02:08.215Z,952.11
2018-03-27T08:03:08.200Z,952.14
2018-03-27T08:04:08.185Z,952.16
2018-03-27T08:05:08.170Z,952.17
2018-03-27T08:06:08.156Z,952.11
2018-03-27T08:07:08.141Z,952.08
2018-03-27T08:08:08.126Z,952.09
2018-03-27T08:09:08.112Z,952.08
2018-03-27T08:10:08.097Z,952.15
2018-03-27T08:11:08.144Z,952.1
2018-03-27T08:12:08.067Z,952.09
2018-03-27T08:13:08.052Z,952.13
2018-03-27T08:14:08.039Z,952.1
2018-03-27T08:15:08.024Z,952.11
2018-03-27T08:16:08.010Z,952.08
2018-03-27T08:17:07.995Z,952.07
2018-03-27T08:18:07.981Z,952.12
2018-03-27T08:19:07.968Z,952.07
2018-03-27T08:20:07.951Z,952.1
2018-03-27T08:21:07.935Z,952.11
2018-03-27T08:22:07.957Z,952.13
2018-03-27T08:23:07.907Z,952.11
2018-03-27T08:24:08.035Z,952.12
2018-03-27T08:25:07.878Z,952.11
2018-03-27T08:26:07.863Z,952.14
2018-03-27T08:27:07.848Z,952.13
2018-03-27T08:28:07.834Z,952.12
2018-03-27T08:29:07.819Z,952.16
2018-03-27T08:30:07.803Z,952.13
2018-03-27T08:31:07.790Z,952.15
2018-03-27T08:32:07.777Z,952.15
2018-03-27T08:33:07.760Z,952.09
2018-03-27T08:34:07.750Z,952.08
2018-03-27T08:35:07.732Z,952.13
2018-03-27T08:36:07.716Z,952.09
2018-03-27T08:37:07.703Z,952.07
2018-03-27T08:38:07.688Z,952.11
2018-03-27T08:39:07.674Z,952.08
2018-03-27T08:40:07.661Z,952.06
2018-03-27T08:41:07.646Z,952.03
2018-03-27T08:42:07.632Z,952.05
2018-03-27T08:43:07.620Z,952.03
2018-03-27T08:44:07.606Z,952.02
2018-03-27T08:45:07.593Z,952.04
2018-03-27T08:46:07.579Z,952
2018-03-27T08:47:07.566Z,952.06
2018-03-27T08:48:07.552Z,952.01
2018-03-27T08:49:07.538Z,952.02
2018-03-27T08:50:07.526Z,951.99
2018-03-27T08:51:07.518Z,951.96
2018-03-27T08:52:07.498Z,952.01
2018-03-27T08:53:07.486Z,951.96
2018-03-27T08:54:07.514Z,952.04
2018-03-27T08:55:07.460Z,951.95
2018-03-27T08:56:07.496Z,951.98
2018-03-27T08:57:07.436Z,951.97
2018-03-27T08:58:07.424Z,951.94
2018-03-27T08:59:07.409Z,951.95
2018-03-27T09:00:07.399Z,951.98
2018-03-27T09:01:07.385Z,951.97
2018-03-27T09:02:07.373Z,951.95
2018-03-27T09:03:07.369Z,951.92
2018-03-27T09:04:07.349Z,951.93
2018-03-27T09:05:07.342Z,951.91
2018-03-27T09:06:07.324Z,951.9
2018-03-27T09:07:07.311Z,951.92
2018-03-27T09:08:07.307Z,951.93
2018-03-27T09:09:07.287Z,951.94
2018-03-27T09:10:07.274Z,951.93
2018-03-27T09:11:07.263Z,951.94
2018-03-27T09:12:07.251Z,951.92
2018-03-27T09:13:07.280Z,951.96
2018-03-27T09:14:07.225Z,951.92
2018-03-27T09:15:07.234Z,951.93
2018-03-27T09:16:07.201Z,951.91
2018-03-27T09:17:07.190Z,951.85
2018-03-27T09:18:07.177Z,951.87
2018-03-27T09:19:07.165Z,951.84
2018-03-27T09:20:07.153Z,951.84
2018-03-27T09:21:07.140Z,951.81
2018-03-27T09:22:07.126Z,951.84
2018-03-27T09:23:07.116Z,951.82
2018-03-27T09:24:07.103Z,951.82
2018-03-27T09:25:07.092Z,951.85
2018-03-27T09:26:07.090Z,951.75
2018-03-27T09:27:07.073Z,951.79
2018-03-27T09:28:07.055Z,951.76
2018-03-27T09:29:07.043Z,951.76
2018-03-27T09:30:07.030Z,951.75
2018-03-27T09:31:07.017Z,951.71
2018-03-27T09:32:07.005Z,951.73
2018-03-27T09:33:06.992Z,951.69
2018-03-27T09:34:06.980Z,951.69
2018-03-27T09:35:06.968Z,951.67
2018-03-27T09:36:06.955Z,951.64
2018-03-27T09:37:06.942Z,951.62
2018-03-27T09:38:06.939Z,951.63
2018-03-27T09:39:06.917Z,951.64
2018-03-27T09:40:06.905Z,951.62
2018-03-27T09:41:06.893Z,951.58
2018-03-27T09:42:06.881Z,951.56
2018-03-27T09:43:06.868Z,951.56
2018-03-27T09:44:06.867Z,951.58
2018-03-27T09:45:06.844Z,951.53
2018-03-27T09:46:06.830Z,951.55
2018-03-27T09:47:06.819Z,951.53
2018-03-27T09:48:06.806Z,951.6
2018-03-27T09:49:06.796Z,951.56
2018-03-27T09:50:06.780Z,951.56
2018-03-27T09:51:06.774Z,951.59
2018-03-27T09:52:06.755Z,951.59
2018-03-27T09:53:06.744Z,951.59
2018-03-27T09:54:06.731Z,951.56
2018-03-27T09:55:06.719Z,951.54
2018-03-27T09:56:06.705Z,951.58
2018-03-27T09:57:06.695Z,951.52
2018-03-27T09:58:06.681Z,951.53
2018-03-27T09:59:06.668Z,951.52
2018-03-27T10:00:06.656Z,951.5
2018-03-27T10:01:06.643Z,951.47
2018-03-27T10:02:06.632Z,951.48
2018-03-27T10:03:06.619Z,951.53
2018-03-27T10:04:06.608Z,951.47
2018-03-27T10:05:06.595Z,951.54
2018-03-27T10:06:06.587Z,951.47
2018-03-27T10:07:06.577Z,951.43
2018-03-27T10:08:06.560Z,951.4
2018-03-27T10:09:06.547Z,951.4
2018-03-27T10:10:06.536Z,951.39
2018-03-27T10:11:06.523Z,951.4
2018-03-27T10:12:06.512Z,951.42
2018-03-27T10:13:06.500Z,951.42
2018-03-27T10:14:06.488Z,951.43
2018-03-27T10:15:06.476Z,951.44
2018-03-27T10:16:06.464Z,951.44
2018-03-27T10:17:06.457Z,951.41
2018-03-27T10:18:06.442Z,951.4
2018-03-27T10:19:06.428Z,951.42
2018-03-27T10:20:06.416Z,951.34
2018-03-27T10:21:06.405Z,951.39
2018-03-27T10:22:06.443Z,951.41
2018-03-27T10:23:06.386Z,951.35
2018-03-27T10:24:06.369Z,951.37
2018-03-27T10:25:06.357Z,951.34
2018-03-27T10:26:06.354Z,951.36
2018-03-27T10:27:06.332Z,951.35
2018-03-27T10:28:06.320Z,951.41
2018-03-27T10:29:06.312Z,951.36
2018-03-27T10:30:06.298Z,951.4
2018-03-27T10:31:06.286Z,951.38
2018-03-27T10:32:06.274Z,951.37
2018-03-27T10:33:06.288Z,951.36
2018-03-27T10:34:06.248Z,951.35
2018-03-27T10:35:06.259Z,951.4
2018-03-27T10:36:06.226Z,951.34
2018-03-27T10:37:06.213Z,951.36
2018-03-27T10:38:06.200Z,951.34
2018-03-27T10:39:06.190Z,951.38
2018-03-27T10:40:06.181Z,951.39
2018-03-27T10:41:06.167Z,951.36
2018-03-27T10:42:06.153Z,951.37
2018-03-27T10:43:06.142Z,951.36
2018-03-27T10:44:06.131Z,951.35
2018-03-27T10:45:06.117Z,951.34
2018-03-27T10:46:06.106Z,951.34
2018-03-27T10:47:06.095Z,951.34
2018-03-27T10:48:06.084Z,951.31
2018-03-27T10:49:06.070Z,951.31
2018-03-27T10:50:06.061Z,951.3
2018-03-27T10:51:06.047Z,951.3
2018-03-27T10:52:06.036Z,951.34
2018-03-27T10:53:06.064Z,951.32
2018-03-27T10:54:06.020Z,951.3
2018-03-27T10:55:06.003Z,951.26
2018-03-27T10:56:05.991Z,951.28
2018-03-27T10:57:05.979Z,951.3
2018-03-27T10:58:05.967Z,951.26
2018-03-27T10:59:05.956Z,951.22
2018-03-27T11:00:05.944Z,951.2
2018-03-27T11:01:05.933Z,951.18
2018-03-27T11:02:05.921Z,951.14
2018-03-27T11:03:05.909Z,951.19
2018-03-27T11:04:05.899Z,951.17
2018-03-27T11:05:05.893Z,951.18
2018-03-27T11:06:05.876Z,951.13
2018-03-27T11:07:05.863Z,951.13
2018-03-27T11:08:05.854Z,951.06
2018-03-27T11:09:05.841Z,951.06
2018-03-27T11:10:05.835Z,951.07
2018-03-27T11:11:05.819Z,951.02
2018-03-27T11:12:05.808Z,951.05
2018-03-27T11:13:05.797Z,950.99
2018-03-27T11:14:05.784Z,951.03
2018-03-27T11:15:05.774Z,951.11
2018-03-27T11:16:05.763Z,951.07
2018-03-27T11:17:05.751Z,951.1
2018-03-27T11:18:05.739Z,951.11
2018-03-27T11:19:05.728Z,951.11
2018-03-27T11:20:05.718Z,951.11
2018-03-27T11:21:05.708Z,951.09
2018-03-27T11:22:05.693Z,951.07
2018-03-27T11:23:05.680Z,951.02
2018-03-27T11:24:05.670Z,951.02
2018-03-27T11:25:05.658Z,951.03
2018-03-27T11:26:05.647Z,950.95
2018-03-27T11:27:05.633Z,950.92
2018-03-27T11:28:05.623Z,950.94
2018-03-27T11:29:05.610Z,950.9
2018-03-27T11:30:05.603Z,950.89
2018-03-27T11:31:05.587Z,950.85
2018-03-27T11:32:05.579Z,950.91
2018-03-27T11:33:05.564Z,950.84
2018-03-27T11:34:05.553Z,950.75
2018-03-27T11:35:05.540Z,950.78
2018-03-27T11:36:05.527Z,950.76
2018-03-27T11:37:05.518Z,950.74
2018-03-27T11:38:05.506Z,950.77
2018-03-27T11:39:05.494Z,950.72
2018-03-27T11:40:05.482Z,950.67
2018-03-27T11:41:05.471Z,950.65
2018-03-27T11:42:05.459Z,950.62
2018-03-27T11:43:05.449Z,950.65
2018-03-27T11:44:05.437Z,950.68
2018-03-27T11:45:05.451Z,950.64
2018-03-27T11:46:05.416Z,950.62
2018-03-27T11:47:05.402Z,950.65
2018-03-27T11:48:05.391Z,950.63
2018-03-27T11:49:05.387Z,950.63
2018-03-27T11:50:05.371Z,950.65
2018-03-27T11:51:05.361Z,950.59
2018-03-27T11:52:05.349Z,950.59
2018-03-27T11:53:05.337Z,950.61
2018-03-27T11:54:05.328Z,950.63
2018-03-27T11:55:05.316Z,950.6
2018-03-27T11:56:05.304Z,950.62
2018-03-27T11:57:05.296Z,950.6
2018-03-27T11:58:05.285Z,950.59
2018-03-27T11:59:05.271Z,950.55
2018-03-27T12:00:05.261Z,950.54
2018-03-27T12:01:05.250Z,950.52
2018-03-27T12:02:05.239Z,950.57
2018-03-27T12:03:05.229Z,950.54
2018-03-27T12:04:05.220Z,950.54
2018-03-27T12:05:05.207Z,950.57
2018-03-27T12:06:05.196Z,950.56
2018-03-27T12:07:05.186Z,950.56
2018-03-27T12:08:05.188Z,950.58
2018-03-27T12:09:05.164Z,950.52
2018-03-27T12:10:05.151Z,950.51
2018-03-27T12:11:05.140Z,950.48
2018-03-27T12:12:05.129Z,950.51
2018-03-27T12:13:05.117Z,950.58
2018-03-27T12:14:05.106Z,950.57
2018-03-27T12:15:05.095Z,950.62
2018-03-27T12:16:05.081Z,950.57
2018-03-27T12:17:05.069Z,950.53
2018-03-27T12:18:05.058Z,950.55
2018-03-27T12:19:05.057Z,950.59
2018-03-27T12:20:05.033Z,950.57
2018-03-27T12:21:05.022Z,950.59
2018-03-27T12:22:05.011Z,950.58
2018-03-27T12:23:04.998Z,950.55
2018-03-27T12:24:04.986Z,950.58
2018-03-27T12:25:04.975Z,950.57
2018-03-27T12:26:04.964Z,950.54
2018-03-27T12:27:04.950Z,950.56
2018-03-27T12:28:04.945Z,950.57
2018-03-27T12:29:04.925Z,950.6
2018-03-27T12:30:04.915Z,950.6